sensor_id;sensor_type;location;lat;lon;timestamp;pressure;altitude;pressure_sealevel;temperature;humidity
7433;BME280;32233;49.500;7.764;2023-02-19T00:00:03;98989.38;;;7.69;100.00
7433;BME280;32233;49.500;7.764;2023-02-19T00:02:38;98976.44;;;7.60;100.00
7433;BME280;32233;49.500;7.764;2023-02-19T00:05:04;98966.22;;;7.65;100.00
7433;BME280;32233;49.500;7.764;2023-02-19T00:07:31;98973.25;;;7.73;100.00
7433;BME280;32233;49.500;7.764;2023-02-19T00:09:58;98973.59;;;7.69;100.00
7433;BME280;32233;49.500;7.764;2023-02-19T00:12:24;98976.72;;;7.73;100.00
7433;BME280;32233;49.500;7.764;2023-02-19T00:14:50;98970.97;;;7.69;100.00
7433;BME280;32233;49.500;7.764;2023-02-19T00:17:17;98964.09;;;7.60;100.00
7433;BME280;32233;49.500;7.764;2023-02-19T00:19:43;98959.16;;;7.57;100.00
7433;BME280;32233;49.500;7.764;2023-02-19T00:22:10;98969.34;;;7.60;100.00
7433;BME280;32233;49.500;7.764;2023-02-19T00:24:36;98979.22;;;7.58;100.00
7433;BME280;32233;49.500;7.764;2023-02-19T00:27:03;98973.47;;;7.55;100.00
7433;BME280;32233;49.500;7.764;2023-02-19T00:29:29;98968.56;;;7.52;100.00
7433;BME280;32233;49.500;7.764;2023-02-19T00:31:57;98966.72;;;7.60;100.00
7433;BME280;32233;49.500;7.764;2023-02-19T00:34:23;98971.19;;;7.52;100.00
7433;BME280;32233;49.500;7.764;2023-02-19T00:36:50;98966.72;;;7.60;100.00
7433;BME280;32233;49.500;7.764;2023-02-19T00:39:16;98967.53;;;7.61;100.00
7433;BME280;32233;49.500;7.764;2023-02-19T00:41:44;98959.84;;;7.59;100.00
7433;BME280;32233;49.500;7.764;2023-02-19T00:44:12;98966.09;;;7.50;100.00
7433;BME280;32233;49.500;7.764;2023-02-19T00:46:46;98964.59;;;7.56;100.00
7433;BME280;32233;49.500;7.764;2023-02-19T00:49:21;98968.53;;;7.60;100.00
7433;BME280;32233;49.500;7.764;2023-02-19T00:51:49;98970.50;;;7.58;100.00
7433;BME280;32233;49.500;7.764;2023-02-19T00:54:17;98984.47;;;7.58;100.00
7433;BME280;32233;49.500;7.764;2023-02-19T00:56:45;98990.41;;;7.60;100.00
7433;BME280;32233;49.500;7.764;2023-02-19T00:59:12;98985.00;;;7.54;100.00
7433;BME280;32233;49.500;7.764;2023-02-19T01:01:39;98986.50;;;7.48;100.00
7433;BME280;32233;49.500;7.764;2023-02-19T01:04:06;98999.66;;;7.48;100.00
7433;BME280;32233;49.500;7.764;2023-02-19T01:06:33;98983.38;;;7.44;100.00
7433;BME280;32233;49.500;7.764;2023-02-19T01:09:01;98981.72;;;7.52;100.00
7433;BME280;32233;49.500;7.764;2023-02-19T01:11:28;98955.94;;;7.39;100.00
7433;BME280;32233;49.500;7.764;2023-02-19T01:13:59;98958.09;;;7.35;100.00
7433;BME280;32233;49.500;7.764;2023-02-19T01:16:27;98958.13;;;7.19;100.00
7433;BME280;32233;49.500;7.764;2023-02-19T01:18:55;98950.75;;;7.14;100.00
7433;BME280;32233;49.500;7.764;2023-02-19T01:21:25;98952.88;;;7.11;100.00
7433;BME280;32233;49.500;7.764;2023-02-19T01:23:52;98956.84;;;6.99;100.00
7433;BME280;32233;49.500;7.764;2023-02-19T01:26:22;98958.97;;;7.03;100.00
7433;BME280;32233;49.500;7.764;2023-02-19T01:28:48;98966.84;;;7.03;100.00
7433;BME280;32233;49.500;7.764;2023-02-19T01:31:18;98963.41;;;7.03;100.00
7433;BME280;32233;49.500;7.764;2023-02-19T01:33:46;98962.22;;;7.05;100.00
7433;BME280;32233;49.500;7.764;2023-02-19T01:36:14;98956.97;;;6.97;100.00
7433;BME280;32233;49.500;7.764;2023-02-19T01:38:41;98958.47;;;7.00;100.00
7433;BME280;32233;49.500;7.764;2023-02-19T01:41:11;98955.66;;;7.01;100.00
7433;BME280;32233;49.500;7.764;2023-02-19T01:46:25;98949.44;;;6.94;100.00
7433;BME280;32233;49.500;7.764;2023-02-19T01:48:53;98950.25;;;6.94;100.00
7433;BME280;32233;49.500;7.764;2023-02-19T01:51:21;98952.22;;;6.92;100.00
7433;BME280;32233;49.500;7.764;2023-02-19T01:53:53;98950.91;;;6.97;100.00
7433;BME280;32233;49.500;7.764;2023-02-19T01:56:24;98944.66;;;6.98;100.00
7433;BME280;32233;49.500;7.764;2023-02-19T01:58:52;98942.53;;;6.93;100.00
7433;BME280;32233;49.500;7.764;2023-02-19T02:01:19;98941.06;;;6.90;100.00
7433;BME280;32233;49.500;7.764;2023-02-19T02:03:48;98937.44;;;6.91;100.00
7433;BME280;32233;49.500;7.764;2023-02-19T02:06:22;98937.13;;;6.94;100.00
7433;BME280;32233;49.500;7.764;2023-02-19T02:08:50;98943.69;;;6.99;100.00
7433;BME280;32233;49.500;7.764;2023-02-19T02:11:39;98931.88;;;6.94;100.00
7433;BME280;32233;49.500;7.764;2023-02-19T02:14:07;98927.56;;;7.02;100.00
7433;BME280;32233;49.500;7.764;2023-02-19T02:16:54;98927.25;;;6.97;100.00
7433;BME280;32233;49.500;7.764;2023-02-19T02:19:55;98919.22;;;6.98;100.00
7433;BME280;32233;49.500;7.764;2023-02-19T02:22:41;98918.03;;;7.01;100.00
7433;BME280;32233;49.500;7.764;2023-02-19T02:27:55;98907.38;;;7.02;100.00
7433;BME280;32233;49.500;7.764;2023-02-19T02:33:31;98893.75;;;6.99;100.00
7433;BME280;32233;49.500;7.764;2023-02-19T02:36:07;98901.94;;;7.04;100.00
7433;BME280;32233;49.500;7.764;2023-02-19T02:38:39;98884.72;;;6.93;100.00
7433;BME280;32233;49.500;7.764;2023-02-19T02:41:07;98893.88;;;7.05;100.00
7433;BME280;32233;49.500;7.764;2023-02-19T02:43:35;98893.41;;;7.02;100.00
7433;BME280;32233;49.500;7.764;2023-02-19T02:46:02;98906.06;;;7.06;100.00
7433;BME280;32233;49.500;7.764;2023-02-19T02:48:35;98909.00;;;7.11;100.00
7433;BME280;32233;49.500;7.764;2023-02-19T02:51:25;98894.56;;;7.07;100.00
7433;BME280;32233;49.500;7.764;2023-02-19T02:54:10;98900.13;;;7.12;100.00
7433;BME280;32233;49.500;7.764;2023-02-19T02:56:58;98894.03;;;7.12;100.00
7433;BME280;32233;49.500;7.764;2023-02-19T02:59:31;98892.38;;;7.19;100.00
7433;BME280;32233;49.500;7.764;2023-02-19T03:02:04;98884.66;;;7.09;100.00
7433;BME280;32233;49.500;7.764;2023-02-19T03:07:36;98902.41;;;7.24;100.00
7433;BME280;32233;49.500;7.764;2023-02-19T03:10:07;98908.28;;;7.26;100.00
7433;BME280;32233;49.500;7.764;2023-02-19T03:12:37;98899.75;;;7.32;100.00
7433;BME280;32233;49.500;7.764;2023-02-19T03:15:27;98899.06;;;7.30;100.00
7433;BME280;32233;49.500;7.764;2023-02-19T03:18:15;98894.00;;;7.28;100.00
7433;BME280;32233;49.500;7.764;2023-02-19T03:21:22;98882.84;;;7.18;100.00
7433;BME280;32233;49.500;7.764;2023-02-19T03:23:49;98877.59;;;7.18;100.00
7433;BME280;32233;49.500;7.764;2023-02-19T03:26:36;98884.31;;;7.20;100.00
7433;BME280;32233;49.500;7.764;2023-02-19T03:29:05;98891.88;;;7.24;100.00
7433;BME280;32233;49.500;7.764;2023-02-19T03:32:32;98880.19;;;7.26;100.00
7433;BME280;32233;49.500;7.764;2023-02-19T03:35:12;98868.38;;;7.14;100.00
7433;BME280;32233;49.500;7.764;2023-02-19T03:40:17;98881.84;;;7.27;100.00
7433;BME280;32233;49.500;7.764;2023-02-19T03:42:59;98877.22;;;7.29;100.00
7433;BME280;32233;49.500;7.764;2023-02-19T03:53:54;98878.56;;;7.25;100.00
7433;BME280;32233;49.500;7.764;2023-02-19T03:59:38;98892.53;;;7.17;100.00
7433;BME280;32233;49.500;7.764;2023-02-19T04:05:28;98906.47;;;7.26;100.00
7433;BME280;32233;49.500;7.764;2023-02-19T04:07:58;98893.34;;;7.26;100.00
7433;BME280;32233;49.500;7.764;2023-02-19T04:10:30;98897.44;;;7.29;100.00
7433;BME280;32233;49.500;7.764;2023-02-19T04:13:01;98897.25;;;7.30;100.00
7433;BME280;32233;49.500;7.764;2023-02-19T04:15:33;98892.38;;;7.27;100.00
7433;BME280;32233;49.500;7.764;2023-02-19T04:18:05;98897.63;;;7.27;100.00
7433;BME280;32233;49.500;7.764;2023-02-19T04:20:38;98900.28;;;7.19;100.00
7433;BME280;32233;49.500;7.764;2023-02-19T04:23:06;98899.28;;;7.20;100.00
7433;BME280;32233;49.500;7.764;2023-02-19T04:25:34;98907.97;;;7.20;100.00
7433;BME280;32233;49.500;7.764;2023-02-19T04:28:03;98917.34;;;7.23;100.00
7433;BME280;32233;49.500;7.764;2023-02-19T04:30:30;98914.25;;;7.19;100.00
7433;BME280;32233;49.500;7.764;2023-02-19T04:32:56;98922.28;;;7.18;100.00
7433;BME280;32233;49.500;7.764;2023-02-19T04:35:23;98922.44;;;7.16;100.00
7433;BME280;32233;49.500;7.764;2023-02-19T04:37:49;98927.53;;;7.18;100.00
7433;BME280;32233;49.500;7.764;2023-02-19T04:40:16;98932.47;;;7.21;100.00
7433;BME280;32233;49.500;7.764;2023-02-19T04:42:42;98919.19;;;7.14;100.00
7433;BME280;32233;49.500;7.764;2023-02-19T04:45:09;98921.66;;;7.08;100.00
7433;BME280;32233;49.500;7.764;2023-02-19T04:47:35;98923.63;;;7.06;100.00
7433;BME280;32233;49.500;7.764;2023-02-19T04:50:02;98920.84;;;6.99;100.00
7433;BME280;32233;49.500;7.764;2023-02-19T04:52:29;98926.25;;;6.98;100.00
7433;BME280;32233;49.500;7.764;2023-02-19T04:54:55;98933.19;;;6.99;100.00
7433;BME280;32233;49.500;7.764;2023-02-19T04:57:22;98930.38;;;6.92;100.00
7433;BME280;32233;49.500;7.764;2023-02-19T04:59:48;98934.31;;;6.96;100.00
7433;BME280;32233;49.500;7.764;2023-02-19T05:02:15;98932.50;;;6.97;100.00
7433;BME280;32233;49.500;7.764;2023-02-19T05:04:41;98926.75;;;6.93;100.00
7433;BME280;32233;49.500;7.764;2023-02-19T05:07:08;98926.44;;;6.88;100.00
7433;BME280;32233;49.500;7.764;2023-02-19T05:09:34;98936.31;;;6.94;100.00
7433;BME280;32233;49.500;7.764;2023-02-19T05:12:01;98939.41;;;6.98;100.00
7433;BME280;32233;49.500;7.764;2023-02-19T05:14:27;98942.88;;;6.98;100.00
7433;BME280;32233;49.500;7.764;2023-02-19T05:16:54;98950.91;;;6.97;100.00
7433;BME280;32233;49.500;7.764;2023-02-19T05:19:20;98948.44;;;6.95;100.00
7433;BME280;32233;49.500;7.764;2023-02-19T05:21:47;98950.59;;;7.00;100.00
7433;BME280;32233;49.500;7.764;2023-02-19T05:24:13;98955.53;;;6.94;100.00
7433;BME280;32233;49.500;7.764;2023-02-19T05:26:40;98960.44;;;6.89;100.00
7433;BME280;32233;49.500;7.764;2023-02-19T05:29:08;98968.81;;;6.93;100.00
7433;BME280;32233;49.500;7.764;2023-02-19T05:31:35;98960.78;;;6.94;100.00
7433;BME280;32233;49.500;7.764;2023-02-19T05:34:01;98963.22;;;6.88;100.00
7433;BME280;32233;49.500;7.764;2023-02-19T05:36:28;98960.28;;;6.91;100.00
7433;BME280;32233;49.500;7.764;2023-02-19T05:38:56;98964.72;;;6.90;100.00
7433;BME280;32233;49.500;7.764;2023-02-19T05:41:27;98969.97;;;6.90;100.00
7433;BME280;32233;49.500;7.764;2023-02-19T05:43:55;98974.06;;;6.93;100.00
7433;BME280;32233;49.500;7.764;2023-02-19T05:46:24;98978.00;;;6.97;100.00
7433;BME280;32233;49.500;7.764;2023-02-19T05:48:52;98969.78;;;7.00;100.00
7433;BME280;32233;49.500;7.764;2023-02-19T05:51:21;98976.38;;;6.96;100.00
7433;BME280;32233;49.500;7.764;2023-02-19T05:53:48;98973.91;;;7.03;100.00
7433;BME280;32233;49.500;7.764;2023-02-19T05:56:37;98976.03;;;6.99;100.00
7433;BME280;32233;49.500;7.764;2023-02-19T05:59:14;98979.81;;;7.05;100.00
7433;BME280;32233;49.500;7.764;2023-02-19T06:01:41;98989.31;;;7.06;100.00
7433;BME280;32233;49.500;7.764;2023-02-19T06:04:10;98997.72;;;7.09;100.00
7433;BME280;32233;49.500;7.764;2023-02-19T06:06:37;99007.25;;;7.10;100.00
7433;BME280;32233;49.500;7.764;2023-02-19T06:09:04;99002.00;;;7.10;100.00
7433;BME280;32233;49.500;7.764;2023-02-19T06:11:31;99004.28;;;7.05;100.00
7433;BME280;32233;49.500;7.764;2023-02-19T06:13:58;99008.56;;;7.14;100.00
7433;BME280;32233;49.500;7.764;2023-02-19T06:16:25;99004.94;;;7.15;100.00
7433;BME280;32233;49.500;7.764;2023-02-19T06:18:51;99013.16;;;7.20;100.00
7433;BME280;32233;49.500;7.764;2023-02-19T06:21:18;99014.97;;;7.20;100.00
7433;BME280;32233;49.500;7.764;2023-02-19T06:23:45;99006.41;;;7.18;100.00
7433;BME280;32233;49.500;7.764;2023-02-19T06:26:18;99021.38;;;7.09;100.00
7433;BME280;32233;49.500;7.764;2023-02-19T06:28:46;99015.28;;;7.17;100.00
7433;BME280;32233;49.500;7.764;2023-02-19T06:31:13;99018.41;;;7.20;100.00
7433;BME280;32233;49.500;7.764;2023-02-19T06:33:40;99023.69;;;7.20;100.00
7433;BME280;32233;49.500;7.764;2023-02-19T06:36:11;99022.53;;;7.15;100.00
7433;BME280;32233;49.500;7.764;2023-02-19T06:38:38;99022.84;;;7.12;100.00
7433;BME280;32233;49.500;7.764;2023-02-19T06:41:06;99023.03;;;7.10;100.00
7433;BME280;32233;49.500;7.764;2023-02-19T06:43:33;99028.75;;;7.14;100.00
7433;BME280;32233;49.500;7.764;2023-02-19T06:46:01;99028.94;;;7.04;100.00
7433;BME280;32233;49.500;7.764;2023-02-19T06:48:29;99037.00;;;7.11;100.00
7433;BME280;32233;49.500;7.764;2023-02-19T06:50:56;99037.63;;;7.13;100.00
7433;BME280;32233;49.500;7.764;2023-02-19T06:53:23;99041.09;;;7.13;100.00
7433;BME280;32233;49.500;7.764;2023-02-19T06:56:04;99046.53;;;7.20;100.00
7433;BME280;32233;49.500;7.764;2023-02-19T06:58:32;99051.28;;;7.16;100.00
7433;BME280;32233;49.500;7.764;2023-02-19T07:00:59;99058.66;;;7.21;100.00
7433;BME280;32233;49.500;7.764;2023-02-19T07:03:25;99061.97;;;7.23;100.00
7433;BME280;32233;49.500;7.764;2023-02-19T07:05:52;99066.72;;;7.28;100.00
7433;BME280;32233;49.500;7.764;2023-02-19T07:08:19;99066.72;;;7.28;100.00
7433;BME280;32233;49.500;7.764;2023-02-19T07:10:53;99073.00;;;7.27;100.00
7433;BME280;32233;49.500;7.764;2023-02-19T07:13:21;99072.50;;;7.23;100.00
7433;BME280;32233;49.500;7.764;2023-02-19T07:15:48;99076.09;;;7.22;100.00
7433;BME280;32233;49.500;7.764;2023-02-19T07:18:17;99073.94;;;7.26;100.00
7433;BME280;32233;49.500;7.764;2023-02-19T07:20:43;99076.44;;;7.27;100.00
7433;BME280;32233;49.500;7.764;2023-02-19T07:23:10;99085.47;;;7.33;100.00
7433;BME280;32233;49.500;7.764;2023-02-19T07:25:36;99087.09;;;7.34;100.00
7433;BME280;32233;49.500;7.764;2023-02-19T07:28:03;99092.34;;;7.34;100.00
7433;BME280;32233;49.500;7.764;2023-02-19T07:30:50;99096.31;;;7.38;100.00
7433;BME280;32233;49.500;7.764;2023-02-19T07:33:16;99095.16;;;7.40;100.00
7433;BME280;32233;49.500;7.764;2023-02-19T07:35:49;99096.16;;;7.39;100.00
7433;BME280;32233;49.500;7.764;2023-02-19T07:38:17;99099.28;;;7.43;100.00
7433;BME280;32233;49.500;7.764;2023-02-19T07:40:51;99106.66;;;7.56;100.00
7433;BME280;32233;49.500;7.764;2023-02-19T07:43:18;99104.38;;;7.44;100.00
7433;BME280;32233;49.500;7.764;2023-02-19T07:45:44;99108.63;;;7.45;100.00
7433;BME280;32233;49.500;7.764;2023-02-19T07:48:11;99113.75;;;7.55;100.00
7433;BME280;32233;49.500;7.764;2023-02-19T07:50:38;99118.16;;;7.55;100.00
7433;BME280;32233;49.500;7.764;2023-02-19T07:53:04;99119.97;;;7.54;100.00
7433;BME280;32233;49.500;7.764;2023-02-19T07:55:32;99125.09;;;7.64;100.00
7433;BME280;32233;49.500;7.764;2023-02-19T07:57:59;99132.78;;;7.74;100.00
7433;BME280;32233;49.500;7.764;2023-02-19T08:00:26;99138.56;;;7.69;100.00
7433;BME280;32233;49.500;7.764;2023-02-19T08:02:53;99142.81;;;7.78;100.00
7433;BME280;32233;49.500;7.764;2023-02-19T08:05:45;99152.34;;;7.79;100.00
7433;BME280;32233;49.500;7.764;2023-02-19T08:08:15;99135.59;;;7.88;100.00
7433;BME280;32233;49.500;7.764;2023-02-19T08:10:42;99147.09;;;7.71;100.00
7433;BME280;32233;49.500;7.764;2023-02-19T08:13:28;99151.22;;;7.65;100.00
7433;BME280;32233;49.500;7.764;2023-02-19T08:18:44;99154.97;;;7.79;100.00
7433;BME280;32233;49.500;7.764;2023-02-19T08:21:11;99149.41;;;7.74;100.00
7433;BME280;32233;49.500;7.764;2023-02-19T08:23:38;99153.22;;;7.72;100.00
7433;BME280;32233;49.500;7.764;2023-02-19T08:26:05;99154.34;;;7.61;100.00
7433;BME280;32233;49.500;7.764;2023-02-19T08:28:32;99156.31;;;7.59;100.00
7433;BME280;32233;49.500;7.764;2023-02-19T08:31:01;99155.00;;;7.47;100.00
7433;BME280;32233;49.500;7.764;2023-02-19T08:33:29;99156.47;;;7.49;100.00
7433;BME280;32233;49.500;7.764;2023-02-19T08:35:56;99162.06;;;7.46;100.00
7433;BME280;32233;49.500;7.764;2023-02-19T08:38:22;99162.25;;;7.44;100.00
7433;BME280;32233;49.500;7.764;2023-02-19T08:40:49;99165.88;;;7.52;100.00
7433;BME280;32233;49.500;7.764;2023-02-19T08:43:16;99168.50;;;7.60;100.00
7433;BME280;32233;49.500;7.764;2023-02-19T08:45:43;99168.50;;;7.68;100.00
7433;BME280;32233;49.500;7.764;2023-02-19T08:48:10;99173.75;;;7.68;100.00
7433;BME280;32233;49.500;7.764;2023-02-19T08:50:37;99176.72;;;7.73;100.00
7433;BME280;32233;49.500;7.764;2023-02-19T08:53:05;99173.91;;;7.66;100.00
7433;BME280;32233;49.500;7.764;2023-02-19T08:55:32;99179.03;;;7.68;100.00
7433;BME280;32233;49.500;7.764;2023-02-19T08:57:58;99182.78;;;7.74;100.00
7433;BME280;32233;49.500;7.764;2023-02-19T09:00:25;99187.22;;;7.89;100.00
7433;BME280;32233;49.500;7.764;2023-02-19T09:02:52;99187.03;;;8.07;100.00
7433;BME280;32233;49.500;7.764;2023-02-19T09:05:19;99197.41;;;8.09;100.00
7433;BME280;32233;49.500;7.764;2023-02-19T09:07:45;99190.66;;;8.14;100.00
7433;BME280;32233;49.500;7.764;2023-02-19T09:10:13;99187.38;;;8.21;100.00
7433;BME280;32233;49.500;7.764;2023-02-19T09:12:40;99197.50;;;8.48;100.00
7433;BME280;32233;49.500;7.764;2023-02-19T09:15:07;99201.75;;;8.65;100.00
7433;BME280;32233;49.500;7.764;2023-02-19T09:17:33;99202.06;;;9.33;100.00
7433;BME280;32233;49.500;7.764;2023-02-19T09:20:00;99205.41;;;9.73;99.24
7433;BME280;32233;49.500;7.764;2023-02-19T09:22:26;99219.56;;;9.57;98.60
7433;BME280;32233;49.500;7.764;2023-02-19T09:24:53;99219.31;;;9.43;98.43
7433;BME280;32233;49.500;7.764;2023-02-19T09:27:20;99226.53;;;9.27;99.71
7433;BME280;32233;49.500;7.764;2023-02-19T09:29:46;99213.25;;;9.12;100.00
7433;BME280;32233;49.500;7.764;2023-02-19T09:32:13;99223.00;;;9.03;100.00
7433;BME280;32233;49.500;7.764;2023-02-19T09:34:39;99221.13;;;8.81;100.00
7433;BME280;32233;49.500;7.764;2023-02-19T09:37:07;99219.06;;;8.99;100.00
7433;BME280;32233;49.500;7.764;2023-02-19T09:39:34;99227.94;;;9.06;100.00
7433;BME280;32233;49.500;7.764;2023-02-19T09:42:03;99228.59;;;9.08;100.00
7433;BME280;32233;49.500;7.764;2023-02-19T09:44:38;99236.19;;;9.03;100.00
7433;BME280;32233;49.500;7.764;2023-02-19T09:47:32;99241.34;;;8.88;100.00
7433;BME280;32233;49.500;7.764;2023-02-19T09:50:08;99257.28;;;9.03;100.00
7433;BME280;32233;49.500;7.764;2023-02-19T09:52:39;99239.31;;;9.07;100.00
7433;BME280;32233;49.500;7.764;2023-02-19T09:55:30;99238.31;;;9.08;100.00
7433;BME280;32233;49.500;7.764;2023-02-19T09:57:59;99235.06;;;9.29;100.00
7433;BME280;32233;49.500;7.764;2023-02-19T10:00:32;99236.78;;;9.45;100.00
7433;BME280;32233;49.500;7.764;2023-02-19T10:03:04;99248.03;;;9.38;99.32
7433;BME280;32233;49.500;7.764;2023-02-19T10:05:32;99242.59;;;9.40;98.23
7433;BME280;32233;49.500;7.764;2023-02-19T10:07:59;99234.59;;;9.25;99.04
7433;BME280;32233;49.500;7.764;2023-02-19T10:10:32;99236.22;;;9.26;97.70
7433;BME280;32233;49.500;7.764;2023-02-19T10:15:51;99248.34;;;9.43;99.71
7433;BME280;32233;49.500;7.764;2023-02-19T10:18:21;99247.63;;;9.50;99.21
7433;BME280;32233;49.500;7.764;2023-02-19T10:20:50;99255.69;;;9.79;98.74
7433;BME280;32233;49.500;7.764;2023-02-19T10:23:17;99262.97;;;9.77;97.16
7433;BME280;32233;49.500;7.764;2023-02-19T10:25:48;99261.81;;;9.80;95.49
7433;BME280;32233;49.500;7.764;2023-02-19T10:28:20;99263.72;;;9.86;97.28
7433;BME280;32233;49.500;7.764;2023-02-19T10:30:53;99268.59;;;9.74;95.77
7433;BME280;32233;49.500;7.764;2023-02-19T10:33:21;99282.91;;;10.03;94.46
7433;BME280;32233;49.500;7.764;2023-02-19T10:35:58;99273.25;;;11.73;88.25
7433;BME280;32233;49.500;7.764;2023-02-19T10:38:29;99284.25;;;11.55;85.56
7433;BME280;32233;49.500;7.764;2023-02-19T10:41:03;99282.28;;;12.00;83.13
7433;BME280;32233;49.500;7.764;2023-02-19T10:43:34;99290.56;;;12.11;83.02
7433;BME280;32233;49.500;7.764;2023-02-19T10:46:05;99279.34;;;12.09;81.48
7433;BME280;32233;49.500;7.764;2023-02-19T10:48:36;99269.63;;;13.21;77.83
7433;BME280;32233;49.500;7.764;2023-02-19T10:51:06;99259.16;;;13.47;76.05
7433;BME280;32233;49.500;7.764;2023-02-19T10:53:45;99262.28;;;13.16;76.44
7433;BME280;32233;49.500;7.764;2023-02-19T10:56:14;99260.72;;;12.94;76.62
7433;BME280;32233;49.500;7.764;2023-02-19T10:58:42;99267.53;;;12.68;78.90
7433;BME280;32233;49.500;7.764;2023-02-19T11:01:18;99273.34;;;12.01;80.82
7433;BME280;32233;49.500;7.764;2023-02-19T11:03:48;99279.59;;;11.57;82.91
7433;BME280;32233;49.500;7.764;2023-02-19T11:06:18;99288.09;;;11.01;85.71
7433;BME280;32233;49.500;7.764;2023-02-19T11:08:50;99295.91;;;11.24;86.56
7433;BME280;32233;49.500;7.764;2023-02-19T11:11:29;99286.38;;;11.45;84.24
7433;BME280;32233;49.500;7.764;2023-02-19T11:13:59;99290.53;;;11.69;81.90
7433;BME280;32233;49.500;7.764;2023-02-19T11:16:40;99306.72;;;11.08;84.33
7433;BME280;32233;49.500;7.764;2023-02-19T11:19:27;99310.25;;;11.00;83.33
7433;BME280;32233;49.500;7.764;2023-02-19T11:21:54;99308.69;;;10.61;87.11
7433;BME280;32233;49.500;7.764;2023-02-19T11:24:34;99300.06;;;10.82;85.29
7433;BME280;32233;49.500;7.764;2023-02-19T11:27:04;99308.69;;;10.76;85.38
7433;BME280;32233;49.500;7.764;2023-02-19T11:29:32;99311.88;;;10.72;85.72
7433;BME280;32233;49.500;7.764;2023-02-19T11:32:23;99312.78;;;10.49;87.81
7433;BME280;32233;49.500;7.764;2023-02-19T11:35:03;99311.94;;;10.49;86.80
7433;BME280;32233;49.500;7.764;2023-02-19T11:37:52;99303.13;;;10.56;86.50
7433;BME280;32233;49.500;7.764;2023-02-19T11:40:23;99289.81;;;10.64;85.57
7433;BME280;32233;49.500;7.764;2023-02-19T11:43:21;99286.81;;;10.68;84.58
7433;BME280;32233;49.500;7.764;2023-02-19T11:48:42;99297.03;;;10.71;82.32
7433;BME280;32233;49.500;7.764;2023-02-19T12:02:25;99308.72;;;11.57;78.03
7433;BME280;32233;49.500;7.764;2023-02-19T12:05:24;99299.22;;;11.99;76.05
7433;BME280;32233;49.500;7.764;2023-02-19T12:10:40;99303.88;;;12.18;75.77
7433;BME280;32233;49.500;7.764;2023-02-19T12:16:35;99316.31;;;11.60;76.99
7433;BME280;32233;49.500;7.764;2023-02-19T12:22:29;99310.72;;;11.19;81.55
7433;BME280;32233;49.500;7.764;2023-02-19T12:25:24;99307.38;;;11.46;80.58
7433;BME280;32233;49.500;7.764;2023-02-19T12:28:12;99312.25;;;11.28;78.29
7433;BME280;32233;49.500;7.764;2023-02-19T12:31:20;99310.06;;;11.31;76.35
7433;BME280;32233;49.500;7.764;2023-02-19T12:39:45;99309.72;;;11.05;74.96
7433;BME280;32233;49.500;7.764;2023-02-19T12:45:20;99301.03;;;10.66;78.19
7433;BME280;32233;49.500;7.764;2023-02-19T12:48:00;99297.00;;;10.56;78.29
7433;BME280;32233;49.500;7.764;2023-02-19T12:50:29;99295.25;;;10.48;79.56
7433;BME280;32233;49.500;7.764;2023-02-19T12:53:04;99320.06;;;10.47;79.26
7433;BME280;32233;49.500;7.764;2023-02-19T12:55:37;99306.63;;;10.34;80.56
7433;BME280;32233;49.500;7.764;2023-02-19T12:58:11;99317.56;;;10.31;81.55
7433;BME280;32233;49.500;7.764;2023-02-19T13:00:54;99317.75;;;10.44;80.96
7433;BME280;32233;49.500;7.764;2023-02-19T13:03:34;99310.38;;;10.39;81.12
7433;BME280;32233;49.500;7.764;2023-02-19T13:06:13;99298.38;;;10.52;81.02
7433;BME280;32233;49.500;7.764;2023-02-19T13:08:56;99300.03;;;10.68;80.84
7433;BME280;32233;49.500;7.764;2023-02-19T13:11:35;99301.13;;;10.88;80.06
7433;BME280;32233;49.500;7.764;2023-02-19T13:14:18;99295.28;;;11.22;78.76
7433;BME280;32233;49.500;7.764;2023-02-19T13:16:50;99302.38;;;11.36;77.88
7433;BME280;32233;49.500;7.764;2023-02-19T13:19:19;99298.63;;;11.46;76.76
7433;BME280;32233;49.500;7.764;2023-02-19T13:21:52;99289.88;;;11.30;75.22
7433;BME280;32233;49.500;7.764;2023-02-19T13:24:41;99282.22;;;11.35;77.56
7433;BME280;32233;49.500;7.764;2023-02-19T13:27:32;99280.25;;;11.08;76.46
7433;BME280;32233;49.500;7.764;2023-02-19T13:32:44;99277.59;;;11.23;77.69
7433;BME280;32233;49.500;7.764;2023-02-19T13:38:26;99278.78;;;11.20;76.37
7433;BME280;32233;49.500;7.764;2023-02-19T13:40:57;99264.47;;;11.14;76.48
7433;BME280;32233;49.500;7.764;2023-02-19T13:43:27;99261.72;;;10.49;78.23
7433;BME280;32233;49.500;7.764;2023-02-19T13:46:01;99267.59;;;10.74;78.38
7433;BME280;32233;49.500;7.764;2023-02-19T13:48:34;99268.13;;;10.84;78.59
7433;BME280;32233;49.500;7.764;2023-02-19T13:54:00;99256.53;;;11.00;78.08
7433;BME280;32233;49.500;7.764;2023-02-19T13:59:12;99257.63;;;11.05;76.86
7433;BME280;32233;49.500;7.764;2023-02-19T14:17:24;99273.16;;;10.79;74.85
7433;BME280;32233;49.500;7.764;2023-02-19T14:30:54;99292.47;;;10.64;76.64
7433;BME280;32233;49.500;7.764;2023-02-19T14:35:56;99291.09;;;10.54;77.46
7433;BME280;32233;49.500;7.764;2023-02-19T14:38:33;99293.09;;;10.52;77.99
7433;BME280;32233;49.500;7.764;2023-02-19T14:41:01;99292.41;;;10.35;80.07
7433;BME280;32233;49.500;7.764;2023-02-19T14:43:28;99298.28;;;10.22;80.69
7433;BME280;32233;49.500;7.764;2023-02-19T14:46:06;99290.06;;;9.94;83.58
7433;BME280;32233;49.500;7.764;2023-02-19T14:48:42;99302.19;;;9.88;83.61
7433;BME280;32233;49.500;7.764;2023-02-19T14:51:38;99304.75;;;9.97;84.59
7433;BME280;32233;49.500;7.764;2023-02-19T14:54:17;99306.09;;;9.92;84.93
7433;BME280;32233;49.500;7.764;2023-02-19T14:56:47;99315.91;;;9.84;84.77
7433;BME280;32233;49.500;7.764;2023-02-19T15:01:52;99315.88;;;9.61;91.10
7433;BME280;32233;49.500;7.764;2023-02-19T15:04:24;99323.22;;;9.42;91.86
7433;BME280;32233;49.500;7.764;2023-02-19T15:06:52;99324.09;;;9.35;93.78
7433;BME280;32233;49.500;7.764;2023-02-19T15:09:29;99330.72;;;9.31;94.86
7433;BME280;32233;49.500;7.764;2023-02-19T15:11:58;99342.41;;;9.28;94.93
7433;BME280;32233;49.500;7.764;2023-02-19T15:14:25;99338.81;;;9.21;94.82
7433;BME280;32233;49.500;7.764;2023-02-19T15:17:01;99339.34;;;9.08;95.62
7433;BME280;32233;49.500;7.764;2023-02-19T15:19:32;99343.16;;;8.98;95.90
7433;BME280;32233;49.500;7.764;2023-02-19T15:22:00;99344.50;;;8.85;96.16
7433;BME280;32233;49.500;7.764;2023-02-19T15:24:27;99343.41;;;8.72;97.00